Time;durP1;ratioP1;P1;durP2;ratioP2;P2;SDS_P1;SDS_P2;PMS_P1;PMS_P2;Temp;Humidity;BMP_temperature;BMP_pressure;BME280_temperature;BME280_humidity;BME280_pressure;Samples;Min_cycle;Max_cycle;Signal;HPM_P1;HPM_P2
2021/12/21 00:00:23;;;;;;;0.98;0.98;;;;;;;-3.73;100.00;99656.00;4993158;28;20113;-68
2021/12/21 00:02:50;;;;;;;5.25;2.45;;;;;;;-3.76;100.00;99658.38;4993559;28;20038;-68
2021/12/21 00:05:19;;;;;;;1.15;1.15;;;;;;;-3.75;100.00;99657.56;4993284;28;20460;-68
2021/12/21 00:07:47;;;;;;;5.60;2.78;;;;;;;-3.79;100.00;99652.28;4983021;28;20110;-68
2021/12/21 00:10:13;;;;;;;1.35;1.35;;;;;;;-3.86;100.00;99650.22;4988543;28;20507;-68
2021/12/21 00:12:49;;;;;;;1.73;1.63;;;;;;;-3.88;100.00;99648.47;4993277;28;20036;-68
2021/12/21 00:15:33;;;;;;;2.05;1.95;;;;;;;-3.92;100.00;99651.63;4993151;28;20048;-68
2021/12/21 00:18:06;;;;;;;2.50;2.35;;;;;;;-3.97;100.00;99647.97;4993088;28;20104;-68
2021/12/21 00:20:46;;;;;;;1.98;1.88;;;;;;;-4.00;100.00;99642.75;4992927;28;20076;-69
2021/12/21 00:23:29;;;;;;;1.35;1.35;;;;;;;-3.91;100.00;99643.25;4993041;28;20027;-68
2021/12/21 00:25:55;;;;;;;1.77;1.73;;;;;;;-3.94;100.00;99640.53;4992697;28;20471;-68
2021/12/21 00:28:20;;;;;;;3.75;3.42;;;;;;;-3.81;100.00;99638.69;4992968;28;20049;-68
2021/12/21 00:30:46;;;;;;;2.47;2.33;;;;;;;-3.95;100.00;99631.22;4992645;28;20037;-68
2021/12/21 00:33:11;;;;;;;1.27;1.25;;;;;;;-3.77;100.00;99630.44;4992723;28;20030;-68
2021/12/21 00:35:36;;;;;;;3.38;1.77;;;;;;;-3.91;100.00;99638.19;4990754;28;20026;-68
2021/12/21 00:38:04;;;;;;;1.00;1.00;;;;;;;-3.92;100.00;99631.41;4981073;28;20046;-68
2021/12/21 00:40:30;;;;;;;2.17;2.08;;;;;;;-3.79;100.00;99632.03;4990426;28;20028;-68
2021/12/21 00:42:56;;;;;;;1.00;1.00;;;;;;;-3.69;100.00;99634.25;4992631;28;20024;-68
2021/12/21 00:45:21;;;;;;;1.52;1.45;;;;;;;-3.81;100.00;99628.56;4992703;28;20105;-68
2021/12/21 00:47:48;;;;;;;1.30;1.30;;;;;;;-3.84;100.00;99628.38;4992415;28;20065;-68
2021/12/21 00:50:17;;;;;;;1.35;1.35;;;;;;;-3.86;100.00;99617.31;4992579;28;20065;-68
2021/12/21 00:52:44;;;;;;;2.47;1.33;;;;;;;-3.88;100.00;99617.22;4992689;28;20024;-68
2021/12/21 00:55:10;;;;;;;1.75;1.73;;;;;;;-3.92;100.00;99616.22;4992467;28;20081;-68
2021/12/21 00:57:35;;;;;;;2.08;1.98;;;;;;;-3.94;100.00;99612.69;4992370;28;20058;-68
2021/12/21 01:00:00;;;;;;;6.10;2.30;;;;;;;-3.98;100.00;99610.78;4992377;28;20022;-68
2021/12/21 05:17:07;;;;;;;1.25;1.25;;;;;;;-5.47;100.00;99584.00;5096434;23;20060;-67
2021/12/21 05:19:32;;;;;;;0.82;0.82;;;;;;;-5.57;100.00;99576.66;4878197;29;20387;-67
2021/12/21 05:21:58;;;;;;;1.23;1.23;;;;;;;-5.57;100.00;99581.72;4878016;29;20077;-67
2021/12/21 05:24:23;;;;;;;1.08;1.08;;;;;;;-5.56;100.00;99583.50;4876820;29;20048;-67
2021/12/21 05:26:49;;;;;;;3.03;2.30;;;;;;;-5.56;100.00;99583.50;4877872;29;20550;-67
2021/12/21 05:29:14;;;;;;;1.27;1.27;;;;;;;-5.52;100.00;99582.84;4877927;29;20029;-67
2021/12/21 05:31:40;;;;;;;1.05;1.05;;;;;;;-5.49;100.00;99580.53;4878591;29;20032;-68
2021/12/21 05:34:05;;;;;;;1.25;1.25;;;;;;;-5.46;100.00;99575.66;4878259;29;20052;-68
2021/12/21 05:36:30;;;;;;;1.02;1.02;;;;;;;-5.42;100.00;99572.50;4878532;29;20025;-68
2021/12/21 05:39:01;;;;;;;1.23;1.23;;;;;;;-5.38;100.00;99572.69;4870963;28;20039;-68
2021/12/21 05:41:46;;;;;;;1.75;1.65;;;;;;;-5.28;100.00;99572.44;4900344;29;20040;-68
2021/12/21 05:44:12;;;;;;;4.28;1.92;;;;;;;-5.24;100.00;99564.25;4900362;29;20386;-68
2021/12/21 05:46:37;;;;;;;1.40;1.40;;;;;;;-5.25;100.00;99565.03;4900030;29;20023;-69
2021/12/21 05:49:03;;;;;;;4.10;1.95;;;;;;;-5.35;100.00;99573.75;4900139;29;20032;-68
2021/12/21 05:51:28;;;;;;;2.13;2.03;;;;;;;-5.43;100.00;99570.78;4900124;29;20667;-68
2021/12/21 05:53:53;;;;;;;1.48;1.48;;;;;;;-5.53;100.00;99573.56;4900058;29;20389;-69
2021/12/21 05:56:19;;;;;;;1.85;1.75;;;;;;;-5.63;100.00;99565.34;4899772;29;20064;-68
2021/12/21 05:58:44;;;;;;;2.75;2.55;;;;;;;-5.66;100.00;99566.03;4899802;29;20054;-67
2021/12/21 06:01:10;;;;;;;1.77;1.65;;;;;;;-5.71;100.00;99567.41;4899967;29;20122;-68
2021/12/21 06:03:35;;;;;;;1.13;1.13;;;;;;;-5.71;100.00;99562.38;4899691;29;20039;-68
2021/12/21 06:06:00;;;;;;;2.10;1.95;;;;;;;-5.73;100.00;99569.00;4890501;29;20022;-67
2021/12/21 06:08:26;;;;;;;1.20;1.20;;;;;;;-5.70;100.00;99565.00;4886002;29;20029;-67
2021/12/21 06:10:54;;;;;;;2.22;2.10;;;;;;;-5.70;100.00;99564.16;4900083;29;20044;-68
2021/12/21 06:26:44;;;;;;;1.60;1.58;;;;;;;-5.61;100.00;99569.69;4880843;29;20032;-68
2021/12/21 06:29:10;;;;;;;1.05;1.05;;;;;;;-5.64;100.00;99567.00;4880660;29;20036;-67
2021/12/21 06:31:35;;;;;;;1.05;1.05;;;;;;;-5.68;100.00;99565.97;4880525;29;20029;-68
2021/12/21 06:34:01;;;;;;;2.13;2.03;;;;;;;-5.73;100.00;99567.34;4881015;29;20032;-68
2021/12/21 06:36:27;;;;;;;1.92;1.75;;;;;;;-5.72;100.00;99565.69;4879244;29;20054;-68
2021/12/21 06:38:53;;;;;;;1.13;1.13;;;;;;;-5.73;100.00;99563.94;4888153;29;20033;-68
2021/12/21 06:41:19;;;;;;;1.25;1.25;;;;;;;-5.70;100.00;99570.06;4880218;29;20498;-67
2021/12/21 06:43:45;;;;;;;1.10;1.10;;;;;;;-5.60;100.00;99568.94;4880681;29;20451;-67
2021/12/21 06:51:28;;;;;;;0.90;0.90;;;;;;;-5.51;100.00;99566.94;4880268;29;20117;-68
2021/12/21 06:53:56;;;;;;;1.23;1.23;;;;;;;-5.49;100.00;99564.50;4880283;29;20082;-68
2021/12/21 06:56:23;;;;;;;1.17;1.17;;;;;;;-5.48;100.00;99559.53;4880143;29;20033;-67
2021/12/21 06:58:49;;;;;;;1.02;1.02;;;;;;;-5.48;100.00;99557.00;4880178;29;20112;-68
2021/12/21 07:01:16;;;;;;;1.50;1.50;;;;;;;-5.50;100.00;99562.78;4880206;29;20025;-68
2021/12/21 07:03:43;;;;;;;2.53;1.88;;;;;;;-5.61;100.00;99564.66;4880229;29;20029;-67
2021/12/21 07:06:09;;;;;;;0.90;0.90;;;;;;;-5.65;100.00;99565.28;4879689;29;20017;-68
2021/12/21 07:19:26;;;;;;;0.80;0.80;;;;;;;-5.71;99.94;99562.38;4898744;29;20100;-69
2021/12/21 07:21:52;;;;;;;1.52;1.52;;;;;;;-5.66;99.91;99568.56;4898595;29;20032;-69
2021/12/21 07:24:17;;;;;;;1.77;1.73;;;;;;;-5.62;100.00;99567.97;4898568;29;20371;-68
2021/12/21 07:26:43;;;;;;;1.23;1.23;;;;;;;-5.60;100.00;99563.91;4898325;29;20104;-68
2021/12/21 07:29:08;;;;;;;1.13;1.13;;;;;;;-5.54;100.00;99566.75;4898403;29;20025;-68
2021/12/21 07:31:34;;;;;;;1.67;1.10;;;;;;;-5.51;100.00;99577.06;4898311;29;20028;-68
2021/12/21 07:33:59;;;;;;;6.38;2.90;;;;;;;-5.50;99.90;99572.88;4898166;29;20056;-68
2021/12/21 07:36:30;;;;;;;2.55;1.80;;;;;;;-5.50;99.68;99583.84;4891070;29;20029;-68
2021/12/21 07:38:56;;;;;;;2.05;1.80;;;;;;;-5.40;99.81;99576.78;4891267;29;20032;-68
2021/12/21 07:41:21;;;;;;;13.95;3.42;;;;;;;-5.45;99.33;99587.50;4898175;29;20025;-68
2021/12/21 07:43:47;;;;;;;3.67;2.45;;;;;;;-5.43;99.12;99580.88;4898072;29;20454;-68
2021/12/21 07:46:12;;;;;;;3.72;1.52;;;;;;;-5.43;98.79;99583.41;4897755;29;20056;-68
2021/12/21 07:48:39;;;;;;;1.00;1.00;;;;;;;-5.36;98.59;99591.34;4897837;29;20108;-67
2021/12/21 07:51:06;;;;;;;1.17;1.17;;;;;;;-5.28;98.73;99590.09;4897974;29;20405;-68
2021/12/21 07:53:31;;;;;;;0.98;0.98;;;;;;;-5.21;98.37;99594.75;4897870;29;20029;-68
2021/12/21 07:56:01;;;;;;;0.88;0.88;;;;;;;-5.09;97.97;99589.50;4897569;29;20024;-68
2021/12/21 07:58:29;;;;;;;;;;;;;;;-5.00;97.80;99595.94;4898126;29;20387;-68
2021/12/21 08:00:55;;;;;;;1.23;1.23;;;;;;;-5.00;97.85;99593.44;4897143;29;19915;-68
2021/12/21 08:03:21;;;;;;;1.00;1.00;;;;;;;-4.86;97.99;99596.72;4897842;29;20414;-68
2021/12/21 08:05:49;;;;;;;1.40;1.40;;;;;;;-4.53;98.32;99592.66;4895373;29;20029;-68
2021/12/21 08:08:19;;;;;;;2.20;2.10;;;;;;;-4.42;96.80;99596.66;4879089;29;20021;-68
2021/12/21 08:10:49;;;;;;;1.00;1.00;;;;;;;-3.88;98.27;99597.84;4896972;29;20398;-68
2021/12/21 08:13:15;;;;;;;2.30;2.20;;;;;;;-3.92;96.10;99598.50;4912040;29;20045;-67
2021/12/21 08:15:41;;;;;;;5.03;3.75;;;;;;;-3.86;94.36;99599.59;4897310;29;20047;-67
2021/12/21 08:18:06;;;;;;;1.58;1.58;;;;;;;-3.89;92.12;99595.22;4897562;29;20096;-67
2021/12/21 08:20:32;;;;;;;1.80;1.70;;;;;;;-3.85;92.63;99597.13;4897504;29;20401;-67
2021/12/21 08:22:57;;;;;;;1.13;1.10;;;;;;;-3.74;92.17;99606.16;4897487;29;20071;-68
2021/12/21 08:25:25;;;;;;;2.38;2.17;;;;;;;-3.92;91.95;99602.66;4897210;29;20046;-67
2021/12/21 08:27:58;;;;;;;3.70;3.40;;;;;;;-3.75;90.70;99598.47;4897115;29;20115;-68
2021/12/21 08:30:25;;;;;;;1.67;1.60;;;;;;;-3.69;90.93;99593.72;4897174;29;20060;-68
2021/12/21 08:32:51;;;;;;;2.10;2.00;;;;;;;-3.62;90.53;99595.81;4897277;29;20059;-68
2021/12/21 08:35:16;;;;;;;4.82;3.30;;;;;;;-3.50;90.86;99590.47;4896970;29;20467;-68
2021/12/21 08:37:48;;;;;;;3.47;3.10;;;;;;;-3.43;91.16;99595.06;4890003;29;20070;-68
2021/12/21 08:40:14;;;;;;;2.88;2.55;;;;;;;-3.33;90.40;99598.94;4883315;29;20082;-68
2021/12/21 08:42:40;;;;;;;1.38;1.38;;;;;;;-3.24;89.42;99601.91;4878769;29;20120;-68
2021/12/21 08:45:06;;;;;;;1.65;1.55;;;;;;;-3.42;89.18;99600.22;4878625;29;20100;-68
2021/12/21 08:47:36;;;;;;;1.10;1.10;;;;;;;-3.14;89.46;99599.06;4878035;29;20466;-68
2021/12/21 08:50:03;;;;;;;3.33;3.08;;;;;;;-3.10;89.13;99603.47;4878799;29;20041;-68
2021/12/21 08:52:29;;;;;;;3.00;2.80;;;;;;;-2.89;88.94;99603.66;4878293;29;20037;-68
2021/12/21 08:54:54;;;;;;;1.58;1.10;;;;;;;-2.53;89.80;99599.44;4878263;29;20039;-68
2021/12/21 08:57:19;;;;;;;4.85;2.25;;;;;;;-2.29;86.94;99598.84;4877950;29;20075;-68
2021/12/21 08:59:45;;;;;;;1.98;1.83;;;;;;;-1.40;85.03;99589.31;4878285;29;20073;-68
2021/12/21 09:02:10;;;;;;;2.05;1.95;;;;;;;-0.01;78.19;99579.53;4878201;29;20029;-68
2021/12/21 09:04:36;;;;;;;1.63;1.55;;;;;;;2.12;70.90;99571.19;4878321;29;20021;-68
2021/12/21 09:07:03;;;;;;;3.50;3.03;;;;;;;4.07;60.62;99564.06;4877778;29;20024;-68
2021/12/21 09:09:31;;;;;;;2.88;2.67;;;;;;;5.26;55.67;99545.66;4894012;29;20051;-68
2021/12/21 09:11:57;;;;;;;1.08;1.08;;;;;;;4.64;56.84;99553.16;4898211;29;20039;-68
2021/12/21 09:14:22;;;;;;;1.83;1.40;;;;;;;6.05;52.51;99548.53;4900831;29;20020;-69
2021/12/21 09:16:49;;;;;;;2.60;2.22;;;;;;;6.10;51.96;99553.75;4900340;29;20056;-69
2021/12/21 09:19:15;;;;;;;4.32;2.90;;;;;;;5.73;53.93;99558.34;4900823;29;20033;-70
2021/12/21 09:21:41;;;;;;;2.45;2.25;;;;;;;7.27;49.22;99546.34;4900597;29;20462;-70
2021/12/21 09:24:06;;;;;;;1.77;1.65;;;;;;;7.54;47.74;99553.38;4900580;29;20028;-70
2021/12/21 09:26:32;;;;;;;6.55;4.22;;;;;;;6.98;48.39;99548.66;4900567;29;20279;-70
2021/12/21 09:28:57;;;;;;;3.90;2.78;;;;;;;6.98;48.39;99552.97;4900477;29;20095;-70
2021/12/21 09:31:23;;;;;;;6.75;2.28;;;;;;;9.10;44.88;99541.06;4900567;29;20038;-70
2021/12/21 09:33:48;;;;;;;3.33;2.92;;;;;;;8.10;45.00;99541.66;4900458;29;20064;-70
2021/12/21 09:36:13;;;;;;;3.92;3.38;;;;;;;8.86;45.15;99539.31;4894539;29;20021;-70
2021/12/21 09:38:39;;;;;;;10.57;3.05;;;;;;;8.95;43.63;99541.94;4881164;29;20040;-70
2021/12/21 09:41:05;;;;;;;4.78;3.50;;;;;;;8.39;44.07;99550.41;4881821;29;20044;-70
2021/12/21 09:43:31;;;;;;;1.80;1.70;;;;;;;8.22;44.75;99552.06;4881462;29;20037;-70
2021/12/21 09:45:56;;;;;;;1.90;1.77;;;;;;;10.89;40.38;99542.22;4881264;29;20111;-70
2021/12/21 09:48:23;;;;;;;5.93;2.13;;;;;;;11.14;39.42;99543.75;4881420;29;20108;-70
2021/12/21 09:50:49;;;;;;;8.05;2.65;;;;;;;10.41;39.87;99545.09;4881459;29;20036;-70
2021/12/21 09:53:14;;;;;;;1.98;1.88;;;;;;;10.64;41.08;99546.72;4880291;29;20037;-70
2021/12/21 09:55:40;;;;;;;2.20;1.83;;;;;;;11.27;38.81;99545.38;4881314;29;20460;-70
2021/12/21 09:58:05;;;;;;;3.47;2.50;;;;;;;9.93;40.63;99553.88;4881319;29;20068;-70
2021/12/21 10:00:32;;;;;;;2.05;1.95;;;;;;;10.51;39.96;99551.94;4881467;29;20391;-71
2021/12/21 10:03:03;;;;;;;2.25;2.05;;;;;;;10.07;40.33;99562.47;4881256;29;20164;-70
2021/12/21 10:05:32;;;;;;;2.65;1.77;;;;;;;12.17;37.60;99542.75;4880994;29;20072;-71
2021/12/21 10:08:08;;;;;;;3.40;1.75;;;;;;;11.65;37.49;99540.69;4887517;29;20052;-71
2021/12/21 10:10:37;;;;;;;5.18;1.67;;;;;;;13.67;34.81;99533.56;4897663;29;20120;-71
2021/12/21 10:13:11;;;;;;;2.73;1.40;;;;;;;12.82;33.78;99530.63;4899751;29;20036;-71
2021/12/21 10:15:40;;;;;;;1.88;1.77;;;;;;;12.98;34.63;99526.91;4899279;29;20112;-71
2021/12/21 10:18:06;;;;;;;2.10;1.92;;;;;;;11.81;35.89;99537.09;4899524;29;20518;-71
2021/12/21 10:20:43;;;;;;;2.03;1.88;;;;;;;13.47;33.70;99528.72;4899557;29;20036;-71
2021/12/21 10:23:33;;;;;;;1.67;1.55;;;;;;;15.03;32.39;99519.41;4898883;29;20039;-71
2021/12/21 10:26:03;;;;;;;1.58;1.48;;;;;;;12.87;33.96;99515.81;4895291;29;20041;-69
2021/12/21 10:28:32;;;;;;;3.42;1.88;;;;;;;12.87;34.93;99518.41;4899195;29;20029;-69
2021/12/21 10:31:00;;;;;;;1.83;1.55;;;;;;;11.07;38.78;99519.63;4899539;29;20025;-69
2021/12/21 10:33:27;;;;;;;1.70;1.60;;;;;;;11.72;37.06;99516.41;4899204;29;20067;-69
2021/12/21 10:35:55;;;;;;;3.03;2.00;;;;;;;11.39;37.30;99523.66;4895988;29;20390;-69
2021/12/21 10:38:32;;;;;;;5.50;3.35;;;;;;;11.33;39.06;99521.13;4886792;29;20025;-69
2021/12/21 10:41:18;;;;;;;2.22;1.70;;;;;;;11.30;37.88;99518.53;4861724;29;20124;-69
2021/12/21 10:43:54;;;;;;;3.30;2.35;;;;;;;12.50;37.21;99503.34;4861517;29;20045;-69
2021/12/21 10:46:21;;;;;;;6.22;2.30;;;;;;;14.06;34.03;99495.44;4861537;29;20472;-70
2021/12/21 10:48:49;;;;;;;1.50;1.15;;;;;;;13.29;34.69;99503.00;4861694;29;20037;-70
2021/12/21 10:51:15;;;;;;;1.60;1.50;;;;;;;11.93;36.88;99503.22;4861615;29;20037;-70
2021/12/21 10:53:48;;;;;;;2.05;1.58;;;;;;;10.74;39.47;99507.75;4861778;29;20033;-70
2021/12/21 10:56:16;;;;;;;2.75;1.80;;;;;;;6.85;46.82;99527.06;4861524;29;20049;-70
2021/12/21 10:58:43;;;;;;;2.72;1.52;;;;;;;3.82;56.85;99532.78;4861668;29;20037;-70
2021/12/21 11:01:12;;;;;;;1.95;1.85;;;;;;;3.20;61.33;99534.78;4861582;29;20029;-70
2021/12/21 11:03:50;;;;;;;3.78;2.97;;;;;;;2.91;62.34;99526.41;4861608;29;20041;-70
2021/12/21 11:06:18;;;;;;;1.05;1.05;;;;;;;2.29;65.78;99535.88;4867180;29;20032;-70
2021/12/21 11:08:51;;;;;;;7.70;2.40;;;;;;;2.41;66.26;99528.53;4887546;29;20119;-69
2021/12/21 11:11:43;;;;;;;2.35;1.25;;;;;;;2.37;66.52;99520.72;4879895;29;20033;-70
2021/12/21 11:14:15;;;;;;;1.33;1.23;;;;;;;2.33;67.87;99519.81;4879926;29;20033;-70
2021/12/21 11:16:44;;;;;;;1.55;1.45;;;;;;;4.34;61.20;99502.16;4879415;29;20025;-70
2021/12/21 11:19:12;;;;;;;5.65;2.08;;;;;;;6.76;53.91;99485.78;4879869;29;20100;-70
2021/12/21 11:21:38;;;;;;;0.90;0.90;;;;;;;8.32;49.05;99471.19;4879909;29;20388;-70
2021/12/21 11:24:07;;;;;;;1.38;1.27;;;;;;;8.29;46.62;99475.47;4879866;29;20093;-70
2021/12/21 11:26:34;;;;;;;4.53;1.55;;;;;;;9.74;44.82;99465.09;4879471;29;20029;-70
2021/12/21 11:29:06;;;;;;;1.73;1.63;;;;;;;10.15;42.63;99464.03;4879477;29;20029;-70
2021/12/21 11:31:36;;;;;;;2.65;1.52;;;;;;;10.99;41.02;99461.75;4880369;29;20390;-69
2021/12/21 11:34:03;;;;;;;2.38;1.83;;;;;;;12.44;37.57;99458.38;4879695;29;20033;-69
2021/12/21 11:39:14;;;;;;;1.65;1.30;;;;;;;10.30;40.71;99458.81;4845580;29;20136;-69
2021/12/21 11:41:42;;;;;;;1.20;1.10;;;;;;;11.21;40.61;99456.38;4904488;29;20032;-69
2021/12/21 11:44:36;;;;;;;2.42;1.45;;;;;;;11.10;39.95;99451.28;4898182;29;20103;-69
2021/12/21 11:47:06;;;;;;;1.55;1.00;;;;;;;11.96;37.92;99448.66;4897975;29;20402;-69
2021/12/21 11:49:46;;;;;;;3.53;1.90;;;;;;;11.41;39.31;99451.88;4897832;29;20376;-69
2021/12/21 11:52:21;;;;;;;1.65;1.30;;;;;;;11.51;39.79;99445.69;4898031;29;20060;-69
2021/12/21 11:54:51;;;;;;;1.10;1.10;;;;;;;11.87;38.37;99442.72;4897885;29;20475;-69
2021/12/21 11:57:19;;;;;;;2.65;1.52;;;;;;;11.06;40.01;99441.81;4897616;29;20039;-69
2021/12/21 11:59:49;;;;;;;2.65;1.98;;;;;;;11.37;39.69;99432.00;4897737;29;20063;-69
2021/12/21 12:02:26;;;;;;;1.33;1.23;;;;;;;10.59;40.09;99434.44;4897779;29;20066;-69
2021/12/21 12:04:56;;;;;;;1.75;1.55;;;;;;;10.88;39.99;99440.25;4879257;28;20198;-69
2021/12/21 12:07:21;;;;;;;;;;;;;;;10.90;39.91;99441.09;4885691;29;20116;-69
2021/12/21 12:10:04;;;;;;;1.52;1.42;;;;;;;12.69;37.41;99427.69;4886657;29;19998;-69
2021/12/21 12:12:30;;;;;;;1.10;0.85;;;;;;;12.77;37.05;99423.22;4878960;29;20059;-69
2021/12/21 12:15:01;;;;;;;1.60;1.33;;;;;;;12.17;36.90;99420.66;4878727;29;20112;-69
2021/12/21 12:17:28;;;;;;;3.05;1.63;;;;;;;12.88;36.39;99426.50;4878508;29;20029;-69
2021/12/21 12:20:04;;;;;;;1.23;1.13;;;;;;;12.15;36.66;99431.06;4878847;29;20108;-69
2021/12/21 12:22:46;;;;;;;2.70;1.20;;;;;;;10.94;37.64;99431.56;4878769;29;20555;-69
2021/12/21 12:25:24;;;;;;;1.45;1.00;;;;;;;10.79;39.67;99432.56;4878492;29;20112;-69
2021/12/21 12:27:52;;;;;;;1.00;1.00;;;;;;;9.97;40.71;99437.38;4878700;29;20032;-69
2021/12/21 12:30:23;;;;;;;2.67;1.02;;;;;;;9.06;42.82;99446.28;4878775;29;20025;-69
2021/12/21 12:32:56;;;;;;;0.93;0.93;;;;;;;7.19;46.57;99455.19;4878741;29;20372;-69
2021/12/21 12:35:25;;;;;;;1.92;1.38;;;;;;;6.48;48.67;99443.50;4878422;29;20048;-69
2021/12/21 12:38:17;;;;;;;2.15;1.10;;;;;;;5.84;51.21;99451.34;4881590;29;20482;-69
2021/12/21 12:40:50;;;;;;;1.63;1.13;;;;;;;5.17;52.58;99445.34;4879055;29;20502;-69
2021/12/21 12:43:26;;;;;;;1.35;1.15;;;;;;;5.37;54.78;99446.50;4878396;29;20067;-69
2021/12/21 12:46:02;;;;;;;0.70;0.70;;;;;;;4.83;54.94;99444.81;4878148;29;20621;-69
2021/12/21 12:48:37;;;;;;;1.83;1.73;;;;;;;4.56;56.78;99452.09;4878655;29;20116;-69
2021/12/21 12:51:05;;;;;;;1.00;1.00;;;;;;;4.18;58.37;99443.72;4878342;29;20490;-69
2021/12/21 12:53:44;;;;;;;1.20;1.15;;;;;;;4.39;57.03;99439.81;4878499;29;20029;-68
2021/12/21 12:56:15;;;;;;;0.80;0.80;;;;;;;4.35;57.13;99438.06;4878059;29;20107;-69
2021/12/21 12:59:04;;;;;;;0.80;0.80;;;;;;;4.58;56.81;99442.72;4878103;29;20092;-69
2021/12/21 13:01:32;;;;;;;1.73;1.63;;;;;;;4.12;56.76;99440.22;4878461;29;20037;-68
2021/12/21 13:04:00;;;;;;;4.32;2.97;;;;;;;4.54;57.18;99433.22;4878219;29;20081;-69
2021/12/21 13:06:28;;;;;;;0.70;0.70;;;;;;;4.44;56.40;99431.34;4878099;29;20055;-68
2021/12/21 13:08:54;;;;;;;0.90;0.90;;;;;;;4.30;57.41;99433.66;4888808;29;20036;-68
2021/12/21 13:11:24;;;;;;;1.33;1.23;;;;;;;4.29;57.98;99437.06;4897195;29;20024;-68
2021/12/21 13:13:50;;;;;;;1.30;1.23;;;;;;;4.12;57.91;99436.78;4897028;29;20036;-69
2021/12/21 13:16:18;;;;;;;1.05;1.05;;;;;;;4.13;57.57;99438.50;4896503;29;20437;-68
2021/12/21 13:18:57;;;;;;;3.10;1.45;;;;;;;3.95;58.50;99436.47;4896796;29;20427;-68
2021/12/21 13:21:29;;;;;;;2.40;1.13;;;;;;;4.36;58.31;99429.53;4896765;29;20078;-69
2021/12/21 13:24:09;;;;;;;1.27;1.27;;;;;;;4.19;57.27;99430.91;4896695;29;20084;-69
2021/12/21 13:26:45;;;;;;;1.20;1.20;;;;;;;4.10;58.52;99426.47;4896414;29;20052;-69
2021/12/21 13:29:14;;;;;;;0.85;0.85;;;;;;;3.94;58.67;99418.50;4896720;29;20052;-69
2021/12/21 13:31:40;;;;;;;1.20;1.10;;;;;;;3.94;58.93;99424.47;4896676;29;20109;-69
2021/12/21 13:34:06;;;;;;;0.80;0.80;;;;;;;3.94;59.55;99423.63;4896504;29;20406;-69
2021/12/21 13:36:45;;;;;;;0.75;0.75;;;;;;;3.91;60.09;99423.56;4888727;29;20029;-69
2021/12/21 13:39:19;;;;;;;1.30;1.25;;;;;;;3.94;59.85;99433.88;4877858;29;20025;-69
2021/12/21 13:42:00;;;;;;;0.70;0.70;;;;;;;3.33;61.75;99434.34;4877945;29;20440;-69
2021/12/21 13:44:45;;;;;;;1.05;1.02;;;;;;;3.03;62.20;99439.66;4877779;29;20040;-69
2021/12/21 13:47:14;;;;;;;0.65;0.65;;;;;;;3.17;61.97;99434.84;4877785;29;20046;-68
2021/12/21 13:50:01;;;;;;;0.77;0.77;;;;;;;3.11;61.98;99433.88;4877758;29;20029;-68
2021/12/21 13:52:29;;;;;;;0.80;0.80;;;;;;;3.09;61.44;99434.72;4877892;29;20043;-69
2021/12/21 13:54:55;;;;;;;0.70;0.70;;;;;;;3.35;61.87;99432.69;4877609;29;20057;-68
2021/12/21 13:57:21;;;;;;;0.65;0.65;;;;;;;2.62;63.62;99431.03;4877635;29;20030;-68
2021/12/21 13:59:49;;;;;;;0.80;0.80;;;;;;;2.90;63.37;99431.66;4880042;29;20398;-68
2021/12/21 14:02:37;;;;;;;1.13;1.02;;;;;;;3.07;62.43;99420.13;4881150;29;20033;-67
2021/12/21 14:05:06;;;;;;;0.90;0.90;;;;;;;3.06;62.56;99428.63;4881000;29;20064;-68
2021/12/21 14:07:36;;;;;;;1.37;1.07;;;;;;;3.16;62.41;99430.56;4874677;29;20056;-68
2021/12/21 14:10:07;;;;;;;3.20;2.13;;;;;;;3.01;62.45;99425.13;4881037;29;20056;-68
2021/12/21 14:12:32;;;;;;;0.98;0.98;;;;;;;3.02;62.60;99422.59;4881229;29;20040;-68
2021/12/21 14:14:58;;;;;;;1.15;1.15;;;;;;;2.98;62.47;99425.03;4880909;29;20029;-68
2021/12/21 14:17:28;;;;;;;1.10;1.10;;;;;;;3.00;62.38;99423.41;4880603;29;20124;-68
2021/12/21 14:19:56;;;;;;;1.08;1.08;;;;;;;3.00;63.76;99428.50;4880788;29;20025;-68
2021/12/21 14:22:21;;;;;;;1.33;1.33;;;;;;;3.01;63.16;99432.78;4895374;29;20077;-68
2021/12/21 14:24:48;;;;;;;2.22;1.58;;;;;;;2.90;62.07;99436.78;4880703;29;20432;-68
2021/12/21 14:27:14;;;;;;;1.08;1.08;;;;;;;2.82;62.44;99429.81;4880598;29;20431;-68
2021/12/21 14:29:42;;;;;;;0.90;0.88;;;;;;;2.73;63.27;99433.84;4880705;29;20029;-68
2021/12/21 14:34:37;;;;;;;0.60;0.60;;;;;;;2.69;64.25;99432.91;4880445;29;20036;-68
2021/12/21 14:37:08;;;;;;;0.80;0.80;;;;;;;2.69;63.49;99438.00;4880183;29;20021;-67
2021/12/21 14:39:34;;;;;;;0.60;0.60;;;;;;;2.58;63.93;99439.47;4880508;29;20428;-69
2021/12/21 14:42:04;;;;;;;0.93;0.93;;;;;;;2.51;64.53;99440.13;4880504;29;20108;-68
2021/12/21 14:45:02;;;;;;;0.80;0.80;;;;;;;2.39;64.78;99432.16;4880606;29;20032;-69
2021/12/21 14:47:32;;;;;;;0.90;0.90;;;;;;;2.27;65.58;99438.69;4880336;29;20052;-67
2021/12/21 14:50:03;;;;;;;;;;;;;;;2.09;65.99;99443.31;4881065;29;20112;-68
2021/12/21 14:52:44;;;;;;;1.15;1.10;;;;;;;2.07;66.02;99447.50;4880326;29;19919;-68
2021/12/21 14:55:23;;;;;;;0.77;0.77;;;;;;;1.96;66.33;99446.38;4879971;29;20032;-68
2021/12/21 14:57:59;;;;;;;3.00;1.83;;;;;;;1.93;66.22;99451.38;4880367;29;20484;-68
2021/12/21 15:00:35;;;;;;;0.80;0.80;;;;;;;1.87;65.95;99446.13;4880359;29;20039;-68
2021/12/21 15:03:03;;;;;;;0.70;0.70;;;;;;;1.83;66.08;99445.16;4880089;29;20524;-68
2021/12/21 15:05:33;;;;;;;0.77;0.77;;;;;;;1.73;66.62;99443.19;4879957;29;20384;-68
2021/12/21 15:08:00;;;;;;;1.50;1.50;;;;;;;1.64;66.94;99448.88;4879891;29;20044;-68
2021/12/21 15:10:28;;;;;;;0.80;0.80;;;;;;;1.51;68.45;99446.81;4879741;29;20037;-68
2021/12/21 15:12:54;;;;;;;3.78;1.80;;;;;;;1.19;70.80;99449.28;4880105;29;20029;-68
2021/12/21 15:15:22;;;;;;;1.00;1.00;;;;;;;0.97;72.26;99446.91;4878825;29;20364;-68
2021/12/21 15:17:48;;;;;;;1.70;1.60;;;;;;;0.81;73.36;99449.78;4879423;29;20483;-68
2021/12/21 15:20:15;;;;;;;1.98;1.88;;;;;;;0.65;74.26;99449.31;4879632;29;20048;-68
2021/12/21 15:22:41;;;;;;;1.92;1.83;;;;;;;0.52;75.27;99447.16;4879730;29;20211;-68
2021/12/21 15:25:09;;;;;;;2.47;1.20;;;;;;;0.45;76.11;99455.44;4879725;29;20036;-68
2021/12/21 15:27:35;;;;;;;1.10;1.10;;;;;;;0.42;76.60;99460.44;4879523;29;20029;-68
2021/12/21 15:30:02;;;;;;;0.70;0.70;;;;;;;0.35;75.67;99453.41;4878636;29;20047;-68
2021/12/21 15:32:27;;;;;;;1.48;1.38;;;;;;;0.35;75.37;99468.69;4879640;29;20033;-68
2021/12/21 15:34:58;;;;;;;0.98;0.98;;;;;;;0.29;74.94;99463.38;4879449;29;20491;-68
2021/12/21 15:37:23;;;;;;;1.30;1.02;;;;;;;0.25;74.67;99463.28;4879183;29;20052;-68
2021/12/21 15:39:48;;;;;;;1.50;1.40;;;;;;;0.22;74.34;99467.41;4879394;29;20124;-68
2021/12/21 15:42:15;;;;;;;1.25;1.20;;;;;;;0.22;74.20;99463.16;4879352;29;20029;-68
2021/12/21 15:44:49;;;;;;;1.10;1.02;;;;;;;0.21;73.66;99466.53;4879349;29;20077;-68
2021/12/21 15:47:16;;;;;;;1.73;1.65;;;;;;;0.17;74.77;99467.25;4879083;29;20025;-68
2021/12/21 15:49:42;;;;;;;0.85;0.85;;;;;;;-0.10;77.53;99479.00;4879485;29;20055;-70
2021/12/21 15:52:07;;;;;;;0.90;0.90;;;;;;;-0.32;79.18;99478.25;4879291;29;20462;-70
2021/12/21 15:54:35;;;;;;;0.80;0.80;;;;;;;-0.43;80.20;99484.63;4879180;29;20029;-70
2021/12/21 15:57:00;;;;;;;1.33;1.33;;;;;;;-0.53;80.91;99482.56;4878835;29;20021;-69
2021/12/21 15:59:27;;;;;;;0.80;0.80;;;;;;;-0.61;81.60;99481.41;4879155;29;20037;-69
2021/12/21 16:01:53;;;;;;;1.20;1.20;;;;;;;-0.68;81.99;99481.97;4878889;29;20100;-69
2021/12/21 16:04:19;;;;;;;1.30;1.30;;;;;;;-0.65;83.52;99477.00;4879201;29;20036;-69
2021/12/21 16:06:46;;;;;;;2.70;2.55;;;;;;;-0.75;83.26;99470.69;4878670;29;20025;-69
2021/12/21 16:09:12;;;;;;;2.38;2.15;;;;;;;-0.72;83.58;99482.69;4878824;29;20380;-69
2021/12/21 16:11:38;;;;;;;1.35;1.25;;;;;;;-0.80;84.11;99482.38;4879225;29;20025;-69
2021/12/21 16:14:03;;;;;;;1.67;1.45;;;;;;;-0.88;84.90;99493.91;4878840;29;20025;-69
2021/12/21 16:16:29;;;;;;;5.20;2.13;;;;;;;-0.87;84.39;99483.81;4878369;29;20033;-69
2021/12/21 16:18:54;;;;;;;2.03;1.90;;;;;;;-0.95;84.64;99492.81;4867334;29;20067;-69
2021/12/21 16:21:19;;;;;;;2.22;1.65;;;;;;;-0.99;85.02;99496.06;4880508;29;20037;-69
2021/12/21 16:23:45;;;;;;;1.35;1.35;;;;;;;-0.99;85.41;99490.09;4878512;29;20053;-69
2021/12/21 16:26:10;;;;;;;1.90;1.80;;;;;;;-1.11;85.72;99493.91;4878285;29;20097;-69
2021/12/21 16:28:35;;;;;;;1.05;1.05;;;;;;;-1.22;86.04;99501.88;4878529;29;20033;-69
2021/12/21 16:31:01;;;;;;;2.47;1.67;;;;;;;-1.21;86.92;99503.63;4878391;29;20116;-69